createdAt,value
2019-05-07T00:01:52.644Z,2.40
2019-05-07T00:04:22.560Z,2.30
2019-05-07T00:06:53.857Z,2.67
2019-05-07T00:09:23.966Z,2.47
2019-05-07T00:11:54.103Z,2.27
2019-05-07T00:14:25.837Z,2.27
2019-05-07T00:16:55.940Z,2.53
2019-05-07T00:19:26.033Z,2.70
2019-05-07T00:21:56.132Z,2.50
2019-05-07T00:24:26.227Z,2.27
2019-05-07T00:26:56.390Z,2.23
2019-05-07T00:29:26.590Z,2.70
2019-05-07T00:31:56.698Z,2.80
2019-05-07T00:34:32.948Z,2.80
2019-05-07T00:37:13.117Z,2.60
2019-05-07T00:40:02.743Z,2.40
2019-05-07T00:42:50.595Z,2.90
2019-05-07T00:45:27.000Z,2.73
2019-05-07T00:47:57.167Z,2.50
2019-05-07T00:50:33.120Z,3.10
2019-05-07T00:53:03.381Z,2.80
2019-05-07T00:55:33.458Z,2.90
2019-05-07T00:58:03.559Z,2.80
2019-05-07T01:00:33.630Z,3.00
2019-05-07T01:03:05.298Z,2.70
2019-05-07T01:05:35.366Z,2.80
2019-05-07T01:08:05.527Z,2.67
2019-05-07T01:10:35.612Z,2.33
2019-05-07T01:13:05.714Z,2.40
2019-05-07T01:15:35.870Z,2.50
2019-05-07T01:18:05.984Z,2.67
2019-05-07T01:20:36.050Z,3.73
2019-05-07T01:23:06.177Z,2.27
2019-05-07T01:25:36.100Z,2.77
2019-05-07T01:28:06.226Z,2.37
2019-05-07T01:30:36.310Z,3.03
2019-05-07T01:33:16.751Z,2.63
2019-05-07T01:36:05.936Z,3.13
2019-05-07T01:38:36.103Z,2.30
2019-05-07T01:41:06.244Z,2.60
2019-05-07T01:43:36.386Z,2.87
2019-05-07T01:46:06.558Z,3.20
2019-05-07T01:48:36.718Z,2.93
2019-05-07T01:51:06.860Z,2.63
2019-05-07T01:53:37.037Z,2.33
2019-05-07T01:56:07.279Z,2.53
2019-05-07T01:58:37.394Z,2.30
2019-05-07T02:01:07.534Z,2.17
2019-05-07T02:03:52.801Z,3.30
2019-05-07T02:06:32.777Z,2.77
2019-05-07T02:09:12.899Z,2.67
2019-05-07T02:11:44.836Z,2.67
2019-05-07T02:14:14.952Z,2.17
2019-05-07T02:16:45.077Z,3.37
2019-05-07T02:19:15.255Z,2.40
2019-05-07T02:21:45.440Z,2.20
2019-05-07T02:24:15.581Z,2.70
2019-05-07T02:26:45.743Z,2.20
2019-05-07T02:29:15.896Z,2.47
2019-05-07T02:31:47.088Z,2.67
2019-05-07T02:34:17.250Z,2.60
2019-05-07T02:36:47.374Z,2.53
2019-05-07T02:39:26.595Z,2.10
2019-05-07T02:41:56.701Z,2.67
2019-05-07T02:44:26.789Z,2.77
2019-05-07T02:47:18.009Z,3.10
2019-05-07T02:49:53.831Z,2.30
2019-05-07T02:52:44.002Z,3.10
2019-05-07T02:55:26.039Z,2.93
2019-05-07T02:57:56.138Z,2.67
2019-05-07T03:00:26.870Z,2.30
2019-05-07T03:02:56.982Z,2.03
2019-05-07T03:05:27.042Z,2.30
2019-05-07T03:07:57.222Z,2.97
2019-05-07T03:10:27.397Z,2.33
2019-05-07T03:12:58.376Z,2.37
2019-05-07T03:15:32.850Z,2.60
2019-05-07T03:18:03.412Z,2.97
2019-05-07T03:21:04.743Z,2.53
2019-05-07T03:23:42.931Z,3.13
2019-05-07T03:26:24.649Z,2.70
2019-05-07T03:28:56.744Z,3.27
2019-05-07T03:31:36.453Z,2.57
2019-05-07T03:34:16.194Z,3.30
2019-05-07T03:36:49.269Z,2.83
2019-05-07T03:39:19.549Z,3.27
2019-05-07T03:41:49.647Z,3.40
2019-05-07T03:44:44.928Z,2.93
2019-05-07T03:47:43.909Z,2.93
2019-05-07T03:50:15.059Z,3.00
2019-05-07T03:52:46.599Z,3.00
2019-05-07T03:55:16.703Z,3.07
2019-05-07T03:57:46.895Z,2.73
2019-05-07T04:00:17.433Z,3.33
2019-05-07T04:02:47.532Z,2.90
2019-05-07T04:05:17.641Z,3.43
2019-05-07T04:07:47.756Z,3.93
2019-05-07T04:10:17.877Z,3.40
2019-05-07T04:12:48.015Z,3.60
2019-05-07T04:15:19.521Z,3.27
2019-05-07T04:17:50.055Z,3.33
2019-05-07T04:20:20.236Z,3.87
2019-05-07T04:22:53.313Z,3.63
2019-05-07T04:25:37.964Z,3.60
2019-05-07T04:28:14.217Z,2.93
2019-05-07T04:30:44.333Z,3.37
2019-05-07T04:33:16.236Z,3.43
2019-05-07T04:36:14.465Z,3.93
2019-05-07T04:38:44.698Z,4.30
2019-05-07T04:41:14.863Z,3.13
2019-05-07T04:43:44.995Z,3.57
2019-05-07T04:46:15.150Z,2.97
2019-05-07T04:48:45.279Z,4.07
2019-05-07T04:51:18.453Z,3.50
2019-05-07T04:53:48.649Z,3.37
2019-05-07T04:56:19.890Z,4.50
2019-05-07T04:58:52.830Z,3.53
2019-05-07T05:01:23.757Z,3.60
2019-05-07T05:03:54.317Z,3.60
2019-05-07T05:06:24.523Z,3.87
2019-05-07T05:08:56.211Z,3.47
2019-05-07T05:11:28.838Z,3.77
2019-05-07T05:13:58.961Z,4.30
2019-05-07T05:16:29.212Z,4.10
2019-05-07T05:18:59.388Z,4.53
2019-05-07T05:21:38.652Z,5.37
2019-05-07T05:24:12.631Z,4.03
2019-05-07T05:26:42.913Z,4.07
2019-05-07T05:29:14.263Z,4.50
2019-05-07T05:31:44.462Z,4.23
2019-05-07T05:34:14.603Z,4.53
2019-05-07T05:36:44.765Z,4.30
2019-05-07T05:39:15.058Z,5.83
2019-05-07T05:41:46.913Z,5.10
2019-05-07T05:44:22.895Z,5.33
2019-05-07T05:46:53.158Z,5.43
2019-05-07T05:49:23.135Z,6.40
2019-05-07T05:52:02.006Z,7.10
2019-05-07T05:54:39.164Z,5.30
2019-05-07T05:57:23.131Z,6.43
2019-05-07T06:00:15.280Z,5.67
2019-05-07T06:03:03.511Z,5.23
2019-05-07T06:05:56.496Z,5.37
2019-05-07T06:08:54.840Z,4.17
2019-05-07T06:11:44.248Z,4.50
2019-05-07T06:14:22.082Z,3.93
2019-05-07T06:17:04.058Z,4.17
2019-05-07T06:19:39.472Z,3.97
2019-05-07T06:22:22.407Z,3.80
2019-05-07T06:24:58.553Z,4.60
2019-05-07T06:27:28.795Z,3.83
2019-05-07T06:29:58.981Z,2.77
2019-05-07T06:32:29.184Z,2.37
2019-05-07T06:34:59.338Z,2.03
2019-05-07T06:37:32.022Z,2.43
2019-05-07T06:40:12.793Z,1.73
2019-05-07T06:43:03.168Z,2.27
2019-05-07T06:45:37.530Z,2.60
2019-05-07T06:48:07.656Z,2.40
2019-05-07T06:50:37.854Z,2.40
2019-05-07T06:53:08.083Z,2.53
2019-05-07T06:55:38.199Z,3.07
2019-05-07T06:58:12.114Z,2.60
2019-05-07T07:00:54.389Z,3.03
2019-05-07T07:03:34.335Z,2.70
2019-05-07T07:06:24.135Z,2.53
2019-05-07T07:09:03.517Z,2.47
2019-05-07T07:11:44.257Z,2.90
2019-05-07T07:14:15.410Z,2.50
2019-05-07T07:16:45.624Z,2.70
2019-05-07T07:19:15.803Z,2.30
2019-05-07T07:21:47.148Z,2.37
2019-05-07T07:24:17.330Z,2.30
2019-05-07T07:26:47.481Z,4.97
2019-05-07T07:29:19.537Z,2.50
2019-05-07T07:31:58.652Z,2.80
2019-05-07T07:34:33.303Z,2.13
2019-05-07T07:37:12.549Z,2.57
2019-05-07T07:39:40.366Z,2.00
2019-05-07T07:42:12.407Z,2.67
2019-05-07T07:44:42.670Z,2.47
2019-05-07T07:47:13.071Z,2.37
2019-05-07T07:49:43.291Z,2.90
2019-05-07T07:52:13.447Z,3.10
2019-05-07T07:54:43.665Z,2.80
2019-05-07T07:57:32.493Z,2.87
2019-05-07T08:00:23.363Z,3.13
2019-05-07T08:03:02.134Z,4.27
2019-05-07T08:05:32.580Z,3.00
2019-05-07T08:08:02.816Z,3.00
2019-05-07T08:10:33.029Z,3.83
2019-05-07T08:13:03.371Z,3.33
2019-05-07T08:15:33.504Z,3.40
2019-05-07T08:18:03.800Z,3.17
2019-05-07T08:20:33.901Z,3.50
2019-05-07T08:23:05.552Z,3.13
2019-05-07T08:25:47.761Z,3.33
2019-05-07T08:28:19.181Z,3.33
2019-05-07T08:30:56.439Z,2.70
2019-05-07T08:33:32.270Z,2.90
2019-05-07T08:36:14.796Z,2.70
2019-05-07T08:38:52.998Z,3.40
2019-05-07T08:41:25.186Z,3.57
2019-05-07T08:44:09.104Z,3.87
2019-05-07T08:46:52.129Z,4.90
2019-05-07T08:49:35.683Z,3.57
2019-05-07T08:52:03.564Z,4.00
2019-05-07T08:54:33.674Z,4.57
2019-05-07T08:57:03.836Z,4.37
2019-05-07T08:59:35.322Z,5.43
2019-05-07T09:02:07.197Z,5.20
2019-05-07T09:04:37.362Z,5.17
2019-05-07T09:07:07.520Z,4.93
2019-05-07T09:09:37.719Z,4.70
2019-05-07T09:12:07.890Z,4.73
2019-05-07T09:14:38.063Z,4.50
2019-05-07T09:17:08.252Z,5.60
2019-05-07T09:19:50.032Z,4.87
2019-05-07T09:22:12.525Z,5.67
2019-05-07T09:24:42.594Z,5.07
2019-05-07T09:27:17.943Z,4.47
2019-05-07T09:29:54.799Z,4.00
2019-05-07T09:32:37.000Z,4.53
2019-05-07T09:35:09.878Z,4.50
2019-05-07T09:37:41.959Z,4.60
2019-05-07T09:40:12.690Z,5.00
2019-05-07T09:42:44.411Z,4.53
2019-05-07T09:45:15.562Z,4.80
2019-05-07T09:47:47.355Z,5.67
2019-05-07T09:50:17.870Z,4.63
2019-05-07T09:52:48.079Z,5.30
2019-05-07T09:55:19.897Z,5.47
2019-05-07T09:57:50.059Z,4.60
2019-05-07T10:00:22.616Z,5.03
2019-05-07T10:02:52.994Z,5.50
2019-05-07T10:05:23.387Z,5.27
2019-05-07T10:07:53.581Z,6.10
2019-05-07T10:10:23.836Z,5.80
2019-05-07T10:13:01.826Z,5.90
2019-05-07T10:15:33.153Z,6.73
2019-05-07T10:18:09.731Z,8.17
2019-05-07T10:20:42.130Z,7.97
2019-05-07T10:23:22.827Z,7.50
2019-05-07T10:25:54.417Z,7.20
2019-05-07T10:28:24.913Z,6.77
2019-05-07T10:30:56.608Z,7.60
2019-05-07T10:33:26.730Z,7.37
2019-05-07T10:35:57.765Z,7.43
2019-05-07T10:38:27.914Z,7.53
2019-05-07T10:40:58.180Z,8.10
2019-05-07T10:43:28.557Z,8.37
2019-05-07T10:46:12.941Z,8.00
2019-05-07T10:49:04.910Z,8.93
2019-05-07T10:51:35.208Z,9.37
2019-05-07T10:54:05.442Z,11.90
2019-05-07T10:56:52.478Z,9.87
2019-05-07T10:59:24.070Z,11.27
2019-05-07T11:02:02.338Z,12.73
2019-05-07T11:04:40.144Z,12.53
2019-05-07T11:07:04.516Z,12.57
2019-05-07T11:09:34.670Z,13.70
2019-05-07T11:12:04.907Z,13.60
2019-05-07T11:14:35.023Z,13.47
2019-05-07T11:17:24.139Z,13.57
2019-05-07T11:19:56.283Z,14.20
2019-05-07T11:22:26.385Z,13.43
2019-05-07T11:24:56.503Z,15.20
2019-05-07T11:27:26.617Z,13.27
2019-05-07T11:29:56.745Z,13.23
2019-05-07T11:32:27.927Z,13.00
2019-05-07T11:34:58.185Z,11.83
2019-05-07T11:37:28.296Z,12.00
2019-05-07T11:39:58.423Z,10.67
2019-05-07T11:43:05.942Z,10.27
2019-05-07T11:45:54.002Z,10.70
2019-05-07T11:48:23.513Z,7.50
2019-05-07T11:51:15.174Z,7.30
2019-05-07T11:54:02.225Z,7.30
2019-05-07T11:56:32.941Z,7.37
2019-05-07T11:59:03.126Z,8.17
2019-05-07T12:01:43.569Z,8.47
2019-05-07T12:04:05.769Z,8.63
2019-05-07T12:06:35.921Z,9.00
2019-05-07T12:09:08.139Z,8.87
2019-05-07T12:11:38.369Z,9.90
2019-05-07T12:14:08.605Z,9.73
2019-05-07T12:16:38.725Z,10.17
2019-05-07T12:19:08.851Z,11.70
2019-05-07T12:21:38.971Z,11.80
2019-05-07T12:24:09.078Z,11.67
2019-05-07T12:26:41.742Z,12.40
2019-05-07T12:29:12.018Z,11.83
2019-05-07T12:32:02.493Z,13.10
2019-05-07T12:34:36.231Z,12.50
2019-05-07T12:37:06.413Z,13.37
2019-05-07T12:39:36.534Z,11.43
2019-05-07T12:42:06.675Z,11.33
2019-05-07T12:44:36.899Z,11.13
2019-05-07T12:47:07.134Z,12.27
2019-05-07T12:49:37.269Z,12.17
2019-05-07T12:52:32.023Z,12.13
2019-05-07T12:55:14.073Z,11.37
2019-05-07T12:57:44.222Z,10.13
2019-05-07T13:00:32.388Z,11.07
2019-05-07T13:03:17.150Z,11.17
2019-05-07T13:05:47.249Z,10.10
2019-05-07T13:08:17.399Z,8.97
2019-05-07T13:10:48.489Z,7.83
2019-05-07T13:13:18.679Z,8.53
2019-05-07T13:15:48.786Z,8.63
2019-05-07T13:18:19.017Z,8.73
2019-05-07T13:20:49.193Z,9.17
2019-05-07T13:23:19.338Z,8.47
2019-05-07T13:25:49.456Z,7.90
2019-05-07T13:28:19.583Z,8.70
2019-05-07T13:30:49.777Z,8.00
2019-05-07T13:33:22.837Z,7.70
2019-05-07T13:35:53.125Z,8.13
2019-05-07T13:38:38.606Z,7.57
2019-05-07T13:41:27.676Z,8.73
2019-05-07T13:44:13.673Z,8.53
2019-05-07T13:46:44.966Z,8.60
2019-05-07T13:49:15.327Z,9.07
2019-05-07T13:51:45.898Z,7.33
2019-05-07T13:54:16.011Z,6.47
2019-05-07T13:56:46.201Z,5.53
2019-05-07T13:59:16.346Z,6.70
2019-05-07T14:02:05.718Z,5.37
2019-05-07T14:04:36.052Z,6.63
2019-05-07T14:07:06.169Z,6.10
2019-05-07T14:09:36.417Z,7.03
2019-05-07T14:12:06.548Z,6.50
2019-05-07T14:14:37.006Z,6.03
2019-05-07T14:17:07.226Z,7.33
2019-05-07T14:19:37.366Z,7.57
2019-05-07T14:22:15.237Z,8.50
2019-05-07T14:24:39.313Z,8.87
2019-05-07T14:27:09.454Z,8.53
2019-05-07T14:29:39.640Z,9.67
2019-05-07T14:32:31.651Z,10.07
2019-05-07T14:35:14.902Z,9.70
2019-05-07T14:37:52.378Z,10.73
2019-05-07T14:40:25.366Z,9.70
2019-05-07T14:43:03.573Z,11.63
2019-05-07T14:45:33.839Z,10.30
2019-05-07T14:48:03.975Z,10.47
2019-05-07T14:50:34.186Z,10.80
2019-05-07T14:53:04.479Z,9.47
2019-05-07T14:55:34.644Z,10.87
2019-05-07T14:58:04.928Z,10.57
2019-05-07T15:00:35.469Z,11.13
2019-05-07T15:03:05.972Z,11.13
2019-05-07T15:05:36.212Z,10.00
2019-05-07T15:08:11.079Z,9.27
2019-05-07T15:10:41.913Z,8.93
2019-05-07T15:13:12.771Z,9.27
2019-05-07T15:15:43.058Z,8.80
2019-05-07T15:18:24.172Z,9.57
2019-05-07T15:20:54.441Z,9.30
2019-05-07T15:23:31.994Z,9.60
2019-05-07T15:26:04.724Z,10.03
2019-05-07T15:28:36.494Z,9.73
2019-05-07T15:31:18.644Z,9.87
2019-05-07T15:33:49.048Z,9.63
2019-05-07T15:36:19.396Z,10.10
2019-05-07T15:38:49.728Z,12.73
2019-05-07T15:41:19.902Z,39.03
2019-05-07T15:43:52.033Z,9.17
2019-05-07T15:46:22.703Z,8.63
2019-05-07T15:48:53.585Z,12.90
2019-05-07T15:51:24.667Z,13.20
2019-05-07T15:53:56.743Z,8.87
2019-05-07T15:56:26.947Z,9.00
2019-05-07T15:58:57.059Z,7.23
2019-05-07T16:01:27.187Z,7.13
2019-05-07T16:03:58.481Z,7.80
2019-05-07T16:06:32.201Z,7.00
2019-05-07T16:09:05.152Z,6.63
2019-05-07T16:11:35.336Z,6.77
2019-05-07T16:14:16.071Z,6.63
2019-05-07T16:16:47.562Z,5.80
2019-05-07T16:19:22.981Z,6.57
2019-05-07T16:21:53.085Z,6.27
2019-05-07T16:24:23.203Z,5.50
2019-05-07T16:26:53.362Z,6.23
2019-05-07T16:29:23.604Z,6.40
2019-05-07T16:31:53.746Z,5.00
2019-05-07T16:34:25.458Z,6.43
2019-05-07T16:36:55.591Z,5.57
2019-05-07T16:39:27.320Z,5.43
2019-05-07T16:41:57.509Z,5.10
2019-05-07T16:44:28.063Z,5.10
2019-05-07T16:46:59.753Z,5.17
2019-05-07T16:49:31.796Z,5.37
2019-05-07T16:52:01.941Z,4.53
2019-05-07T16:54:32.106Z,4.50
2019-05-07T16:57:33.677Z,4.47
2019-05-07T17:00:04.967Z,4.10
2019-05-07T17:02:41.712Z,4.27
2019-05-07T17:05:13.519Z,3.93
2019-05-07T17:07:52.205Z,3.17
2019-05-07T17:10:22.477Z,3.60
2019-05-07T17:12:52.684Z,3.40
2019-05-07T17:15:22.981Z,3.60
2019-05-07T17:17:59.190Z,2.73
2019-05-07T17:20:29.439Z,2.87
2019-05-07T17:22:59.530Z,2.10
2019-05-07T17:25:38.649Z,2.50
2019-05-07T17:28:09.066Z,2.13
2019-05-07T17:30:42.157Z,2.63
2019-05-07T17:33:12.808Z,2.47
2019-05-07T17:35:45.865Z,2.17
2019-05-07T17:38:15.050Z,2.00
2019-05-07T17:40:45.181Z,2.30
2019-05-07T17:43:15.268Z,2.20
2019-05-07T17:45:45.438Z,2.03
2019-05-07T17:48:15.658Z,2.30
2019-05-07T17:51:07.631Z,2.20
2019-05-07T17:53:37.881Z,1.93
2019-05-07T17:56:08.025Z,2.30
2019-05-07T17:58:38.213Z,2.63
2019-05-07T18:01:23.348Z,2.10
2019-05-07T18:03:53.657Z,2.40
2019-05-07T18:06:23.849Z,2.80
2019-05-07T18:08:54.145Z,2.60
2019-05-07T18:11:24.449Z,2.70
2019-05-07T18:13:54.729Z,2.90
2019-05-07T18:16:33.371Z,3.13
2019-05-07T18:19:05.261Z,3.30
2019-05-07T18:21:38.489Z,3.57
2019-05-07T18:24:16.428Z,3.90
2019-05-07T18:26:43.637Z,4.03
2019-05-07T18:29:16.537Z,4.40
2019-05-07T18:31:50.211Z,4.70
2019-05-07T18:34:21.410Z,4.10
2019-05-07T18:36:53.087Z,4.00
2019-05-07T18:39:23.492Z,4.13
2019-05-07T18:41:53.791Z,5.20
2019-05-07T18:44:23.937Z,4.87
2019-05-07T18:46:54.015Z,4.77
2019-05-07T18:49:24.217Z,5.27
2019-05-07T18:51:54.401Z,5.43
2019-05-07T18:54:30.811Z,6.80
2019-05-07T18:56:57.703Z,5.87
2019-05-07T18:59:31.666Z,5.87
2019-05-07T19:02:02.282Z,5.33
2019-05-07T19:04:32.951Z,4.97
2019-05-07T19:07:04.081Z,4.67
2019-05-07T19:09:34.226Z,4.67
2019-05-07T19:12:05.185Z,5.40
2019-05-07T19:14:35.309Z,5.20
2019-05-07T19:17:05.382Z,5.20
2019-05-07T19:19:35.713Z,5.10
2019-05-07T19:22:05.922Z,5.33
2019-05-07T19:24:47.705Z,5.10
2019-05-07T19:27:13.209Z,5.00
2019-05-07T19:29:45.691Z,5.33
2019-05-07T19:32:15.360Z,5.10
2019-05-07T19:34:45.639Z,6.30
2019-05-07T19:37:15.749Z,6.67
2019-05-07T19:39:49.110Z,6.53
2019-05-07T19:42:19.385Z,7.10
2019-05-07T19:44:52.512Z,7.40
2019-05-07T19:47:23.427Z,7.27
2019-05-07T19:49:54.186Z,7.77
2019-05-07T19:52:24.643Z,7.07
2019-05-07T19:55:01.404Z,7.50
2019-05-07T19:57:44.673Z,7.90
2019-05-07T20:00:15.735Z,7.23
2019-05-07T20:02:52.704Z,6.93
2019-05-07T20:05:23.432Z,7.40
2019-05-07T20:07:58.674Z,8.10
2019-05-07T20:10:37.497Z,8.23
2019-05-07T20:13:07.619Z,7.20
2019-05-07T20:15:39.540Z,7.87
2019-05-07T20:18:09.661Z,7.20
2019-05-07T20:20:41.941Z,7.90
2019-05-07T20:23:12.156Z,7.50
2019-05-07T20:25:42.261Z,8.73
2019-05-07T20:28:12.878Z,8.47
2019-05-07T20:30:43.219Z,8.13
2019-05-07T20:33:13.496Z,8.27
2019-05-07T20:35:43.863Z,8.83
2019-05-07T20:38:15.100Z,8.73
2019-05-07T20:40:45.353Z,8.07
2019-05-07T20:43:15.516Z,7.67
2019-05-07T20:45:45.624Z,7.83
2019-05-07T20:48:15.779Z,8.60
2019-05-07T20:50:46.068Z,9.33
2019-05-07T20:53:21.830Z,9.33
2019-05-07T20:55:57.628Z,9.27
2019-05-07T20:58:27.847Z,9.77
2019-05-07T21:00:58.051Z,10.17
2019-05-07T21:03:28.233Z,9.60
2019-05-07T21:05:58.335Z,11.00
2019-05-07T21:08:28.587Z,16.23
2019-05-07T21:10:58.754Z,13.43
2019-05-07T21:13:32.438Z,13.53
2019-05-07T21:16:02.698Z,12.67
2019-05-07T21:18:32.901Z,12.87
2019-05-07T21:21:02.950Z,12.27
2019-05-07T21:23:33.054Z,12.27
2019-05-07T21:26:03.167Z,12.80
2019-05-07T21:28:33.307Z,12.33
2019-05-07T21:31:03.493Z,13.73
2019-05-07T21:33:33.638Z,14.27
2019-05-07T21:36:03.722Z,16.13
2019-05-07T21:38:33.883Z,16.77
2019-05-07T21:41:05.072Z,15.43
2019-05-07T21:43:35.192Z,17.33
2019-05-07T21:46:05.305Z,16.03
2019-05-07T21:48:35.424Z,16.70
2019-05-07T21:51:05.521Z,18.73
2019-05-07T21:53:42.904Z,17.30
2019-05-07T21:56:29.974Z,18.10
2019-05-07T21:59:05.260Z,18.13
2019-05-07T22:02:02.252Z,17.57
2019-05-07T22:04:32.743Z,18.87
2019-05-07T22:07:03.102Z,19.00
2019-05-07T22:09:33.185Z,19.77
2019-05-07T22:12:03.814Z,19.60
2019-05-07T22:14:34.119Z,20.30
2019-05-07T22:17:04.217Z,19.47
2019-05-07T22:19:34.333Z,19.37
2019-05-07T22:22:04.393Z,18.93
2019-05-07T22:24:34.527Z,19.37
2019-05-07T22:27:04.623Z,18.77
2019-05-07T22:29:34.961Z,19.80
2019-05-07T22:32:16.697Z,19.43
2019-05-07T22:35:08.883Z,19.47
2019-05-07T22:37:40.638Z,20.27
2019-05-07T22:40:13.016Z,20.37
2019-05-07T22:42:44.809Z,20.27
2019-05-07T22:45:16.560Z,20.60
2019-05-07T22:47:46.908Z,21.50
2019-05-07T22:50:17.125Z,21.47
2019-05-07T22:52:47.373Z,21.70
2019-05-07T22:55:17.600Z,21.80
2019-05-07T22:58:07.817Z,21.57
2019-05-07T23:00:44.219Z,22.07
2019-05-07T23:03:14.406Z,21.47
2019-05-07T23:05:44.878Z,22.17
2019-05-07T23:08:15.371Z,22.20
2019-05-07T23:10:45.589Z,20.07
2019-05-07T23:13:15.758Z,20.83
2019-05-07T23:15:45.899Z,21.50
2019-05-07T23:18:17.153Z,22.70
2019-05-07T23:20:47.297Z,23.87
2019-05-07T23:23:17.411Z,22.57
2019-05-07T23:25:47.450Z,23.30
2019-05-07T23:28:17.600Z,22.60
2019-05-07T23:30:47.656Z,23.20
2019-05-07T23:33:17.797Z,22.13
2019-05-07T23:35:47.893Z,23.10
2019-05-07T23:38:18.020Z,24.30
2019-05-07T23:41:16.139Z,23.87
2019-05-07T23:44:05.440Z,23.63
2019-05-07T23:46:35.616Z,24.17
2019-05-07T23:49:05.804Z,26.07
2019-05-07T23:51:35.988Z,23.70
2019-05-07T23:54:06.146Z,25.60
2019-05-07T23:56:36.330Z,25.40
2019-05-07T23:59:06.546Z,25.97
